Time;durP1;ratioP1;P1;durP2;ratioP2;P2;SDS_P1;SDS_P2;PMS_P1;PMS_P2;Temp;Humidity;BMP_temperature;BMP_pressure;BME280_temperature;BME280_humidity;BME280_pressure;Samples;Min_cycle;Max_cycle;Signal;HPM_P1;HPM_P2
2022/12/14 00:01:43;;;;;;;;;;;16.20;34.60;;;;;;8330306;28;19921;-44
2022/12/14 00:05:44;;;;;;;;;;;16.10;34.60;;;;;;8331367;28;19913;-44
2022/12/14 00:09:45;;;;;;;;;;;16.20;34.70;;;;;;8331514;28;19921;-45
2022/12/14 00:13:49;;;;;;;;;;;16.20;34.60;;;;;;8330469;28;19940;-44
2022/12/14 00:17:50;;;;;;;;;;;16.10;34.60;;;;;;8330887;28;19917;-44
2022/12/14 00:21:50;;;;;;;;;;;16.10;34.60;;;;;;8330756;28;20294;-44
2022/12/14 00:25:51;;;;;;;;;;;16.10;34.60;;;;;;8330349;28;20370;-44
2022/12/14 00:29:51;;;;;;;;;;;16.10;34.60;;;;;;8330916;28;19917;-44
2022/12/14 00:33:52;;;;;;;;;;;16.10;34.60;;;;;;8330044;28;19932;-43
2022/12/14 00:37:53;;;;;;;;;;;16.10;34.60;;;;;;8330935;28;19939;-44
2022/12/14 00:41:53;;;;;;;;;;;16.10;34.60;;;;;;8330394;28;19920;-45
2022/12/14 00:45:54;;;;;;;;;;;16.10;34.60;;;;;;8329847;28;19924;-43
2022/12/14 00:49:54;;;;;;;;;;;16.10;34.60;;;;;;8330394;28;19940;-44
2022/12/14 00:53:55;;;;;;;;;;;16.10;34.60;;;;;;8329998;28;20000;-44
2022/12/14 00:57:55;;;;;;;;;;;16.10;34.60;;;;;;8329778;28;20012;-43
2022/12/14 01:01:56;;;;;;;;;;;16.10;35.10;;;;;;8329996;28;19913;-44
2022/12/14 01:05:56;;;;;;;;;;;16.10;34.60;;;;;;8330302;28;19917;-44
2022/12/14 01:09:56;;;;;;;;;;;16.10;34.60;;;;;;8329472;28;20425;-43
2022/12/14 01:13:57;;;;;;;;;;;16.10;34.60;;;;;;8329847;28;19925;-43
2022/12/14 01:17:57;;;;;;;;;;;16.10;34.60;;;;;;8329767;28;20306;-43
2022/12/14 01:21:58;;;;;;;;;;;16.10;34.60;;;;;;8329225;28;19921;-44
2022/12/14 01:25:59;;;;;;;;;;;16.10;34.60;;;;;;8330223;28;19913;-43
2022/12/14 01:29:59;;;;;;;;;;;16.10;34.60;;;;;;8329776;28;19925;-44
2022/12/14 01:34:00;;;;;;;;;;;16.10;34.60;;;;;;8329066;28;19933;-43
2022/12/14 01:38:00;;;;;;;;;;;16.10;34.60;;;;;;8329464;28;19928;-45
2022/12/14 01:42:01;;;;;;;;;;;16.10;34.60;;;;;;8329441;28;19992;-43
2022/12/14 01:46:01;;;;;;;;;;;16.10;34.60;;;;;;8329165;28;19921;-43
2022/12/14 01:50:34;;;;;;;;;;;16.10;34.60;;;;;;8329434;28;19917;-45
2022/12/14 01:54:37;;;;;;;;;;;16.10;34.60;;;;;;8263723;28;19926;-44
2022/12/14 01:58:37;;;;;;;;;;;16.10;34.60;;;;;;8316031;28;19917;-45
2022/12/14 02:02:40;;;;;;;;;;;16.10;34.60;;;;;;8329636;28;20305;-44
2022/12/14 02:06:41;;;;;;;;;;;16.10;34.60;;;;;;8335063;28;19918;-44
2022/12/14 02:10:42;;;;;;;;;;;16.10;34.60;;;;;;8334517;28;19913;-44
2022/12/14 02:14:44;;;;;;;;;;;16.10;34.60;;;;;;8334842;28;20011;-44
2022/12/14 02:18:44;;;;;;;;;;;16.10;34.60;;;;;;8334570;28;19918;-44
2022/12/14 02:23:03;;;;;;;;;;;16.10;34.60;;;;;;8334101;28;20370;-44
2022/12/14 02:27:23;;;;;;;;;;;16.10;34.60;;;;;;8334428;28;19971;-44
2022/12/14 02:31:32;;;;;;;;;;;16.10;34.60;;;;;;8334457;28;19921;-44
2022/12/14 02:35:50;;;;;;;;;;;16.10;34.60;;;;;;8334476;28;20374;-44
2022/12/14 02:40:11;;;;;;;;;;;16.10;34.60;;;;;;8334153;28;19927;-44
2022/12/14 02:44:33;;;;;;;;;;;16.10;34.60;;;;;;8333993;28;19917;-43
2022/12/14 02:48:54;;;;;;;;;;;16.10;34.60;;;;;;8334726;28;19947;-43
2022/12/14 02:53:13;;;;;;;;;;;16.10;34.60;;;;;;8292330;28;19956;-44
2022/12/14 02:57:20;;;;;;;;;;;16.10;34.60;;;;;;8333504;28;19963;-43
2022/12/14 03:01:22;;;;;;;;;;;16.10;34.60;;;;;;8333474;28;20434;-43
2022/12/14 03:05:23;;;;;;;;;;;16.10;34.60;;;;;;8333534;28;20317;-43
2022/12/14 03:09:24;;;;;;;;;;;16.00;34.60;;;;;;8333087;28;19971;-43
2022/12/14 03:13:24;;;;;;;;;;;16.10;34.60;;;;;;8332485;28;19925;-44
2022/12/14 03:17:28;;;;;;;;;;;16.10;34.60;;;;;;8332744;28;19928;-43
2022/12/14 03:21:31;;;;;;;;;;;16.10;34.50;;;;;;8333004;28;19920;-44
2022/12/14 03:25:36;;;;;;;;;;;16.10;34.60;;;;;;8332161;28;20255;-44
2022/12/14 03:29:40;;;;;;;;;;;16.00;34.60;;;;;;8332771;28;19956;-43
2022/12/14 03:33:42;;;;;;;;;;;16.10;34.60;;;;;;8332259;28;19935;-43
2022/12/14 03:37:43;;;;;;;;;;;16.00;34.50;;;;;;8331780;28;19924;-43
2022/12/14 03:41:52;;;;;;;;;;;16.10;34.60;;;;;;8332407;28;19919;-44
2022/12/14 03:45:56;;;;;;;;;;;16.00;34.50;;;;;;8331716;28;19925;-42
2022/12/14 03:49:56;;;;;;;;;;;16.00;34.60;;;;;;8331879;28;19921;-44
2022/12/14 03:54:26;;;;;;;;;;;16.10;34.60;;;;;;8331591;28;19925;-43
2022/12/14 03:58:26;;;;;;;;;;;16.00;34.60;;;;;;8311773;28;19925;-44
2022/12/14 04:02:37;;;;;;;;;;;16.00;34.60;;;;;;8331603;28;20267;-43
2022/12/14 04:06:37;;;;;;;;;;;16.10;34.60;;;;;;8331465;28;19913;-43
2022/12/14 04:19:26;;;;;;;;;;;16.10;34.60;;;;;;8330866;28;20285;-44
2022/12/14 04:27:56;;;;;;;;;;;16.10;34.50;;;;;;8333070;28;20289;-43
2022/12/14 04:31:59;;;;;;;;;;;16.20;34.50;;;;;;8331217;28;19928;-44
2022/12/14 04:36:00;;;;;;;;;;;16.20;34.50;;;;;;8330474;28;19924;-44
2022/12/14 04:40:09;;;;;;;;;;;16.20;34.50;;;;;;8330046;28;19925;-44
2022/12/14 04:44:12;;;;;;;;;;;16.30;34.50;;;;;;8330515;28;19917;-43
2022/12/14 04:48:24;;;;;;;;;;;16.30;34.50;;;;;;8330408;28;19917;-44
2022/12/14 04:52:28;;;;;;;;;;;16.30;34.50;;;;;;8330196;28;19925;-43
2022/12/14 04:56:31;;;;;;;;;;;16.40;34.50;;;;;;8330094;28;19978;-44
2022/12/14 05:00:33;;;;;;;;;;;16.40;34.50;;;;;;8330289;28;19921;-43
2022/12/14 05:04:55;;;;;;;;;;;16.40;34.50;;;;;;8314467;28;19960;-44
2022/12/14 05:08:58;;;;;;;;;;;16.40;34.50;;;;;;8330017;28;19921;-44
2022/12/14 05:13:21;;;;;;;;;;;16.40;34.40;;;;;;8329391;28;20012;-43
2022/12/14 05:17:21;;;;;;;;;;;16.40;34.40;;;;;;8330045;28;19913;-43
2022/12/14 05:25:41;;;;;;;;;;;16.40;34.30;;;;;;8329866;28;19928;-44
2022/12/14 05:29:42;;;;;;;;;;;16.40;34.20;;;;;;8329907;28;20326;-44
2022/12/14 05:33:42;;;;;;;;;;;16.30;34.20;;;;;;8331304;28;20281;-43
2022/12/14 05:37:43;;;;;;;;;;;16.40;34.20;;;;;;8335616;28;19941;-44
2022/12/14 05:41:43;;;;;;;;;;;16.30;34.30;;;;;;8335754;28;19917;-43
2022/12/14 05:45:44;;;;;;;;;;;16.30;34.30;;;;;;8335665;28;19923;-44
2022/12/14 05:49:44;;;;;;;;;;;16.30;34.40;;;;;;8335225;28;19924;-43
2022/12/14 05:53:45;;;;;;;;;;;16.20;34.40;;;;;;8335730;28;20020;-44
2022/12/14 05:57:45;;;;;;;;;;;16.20;34.50;;;;;;8335494;28;20294;-44
2022/12/14 06:01:47;;;;;;;;;;;16.20;34.50;;;;;;8334655;28;20358;-44
2022/12/14 06:05:48;;;;;;;;;;;16.20;35.10;;;;;;8334999;28;20012;-44
2022/12/14 06:09:48;;;;;;;;;;;16.10;34.50;;;;;;8335015;28;20289;-44
2022/12/14 06:13:49;;;;;;;;;;;16.20;34.60;;;;;;8334359;28;19931;-45
2022/12/14 06:17:49;;;;;;;;;;;16.10;34.50;;;;;;8335154;28;19924;-43
2022/12/14 06:21:50;;;;;;;;;;;16.20;34.60;;;;;;8334655;28;19917;-44
2022/12/14 06:25:54;;;;;;;;;;;16.20;34.50;;;;;;8334328;28;19921;-44
2022/12/14 06:29:54;;;;;;;;;;;16.20;34.60;;;;;;8334587;28;20000;-44
2022/12/14 06:34:00;;;;;;;;;;;16.20;34.50;;;;;;8333760;28;19925;-43
2022/12/14 06:38:01;;;;;;;;;;;16.20;34.50;;;;;;8334339;28;19932;-44
2022/12/14 06:42:02;;;;;;;;;;;16.20;34.50;;;;;;8334684;28;20401;-45
2022/12/14 06:46:09;;;;;;;;;;;16.10;35.00;;;;;;8333051;28;19971;-44
2022/12/14 06:50:09;;;;;;;;;;;16.20;34.50;;;;;;8333859;28;20022;-43
2022/12/14 06:54:11;;;;;;;;;;;16.20;34.60;;;;;;8333711;28;20232;-44
2022/12/14 06:58:14;;;;;;;;;;;16.20;34.50;;;;;;8333683;28;19921;-45
2022/12/14 07:02:15;;;;;;;;;;;16.20;34.50;;;;;;8333416;28;19924;-44
2022/12/14 07:06:15;;;;;;;;;;;16.20;34.50;;;;;;8333288;28;19918;-45
2022/12/14 07:10:16;;;;;;;;;;;16.20;34.50;;;;;;8332870;28;19924;-44
2022/12/14 07:14:16;;;;;;;;;;;16.20;34.60;;;;;;8332932;28;19929;-43
2022/12/14 07:18:17;;;;;;;;;;;16.20;34.50;;;;;;8333318;28;19921;-44
2022/12/14 07:22:17;;;;;;;;;;;16.20;34.50;;;;;;8332246;28;19940;-42
2022/12/14 07:26:22;;;;;;;;;;;16.20;34.40;;;;;;8332570;28;19917;-46
2022/12/14 07:30:22;;;;;;;;;;;16.20;34.50;;;;;;8332720;28;20008;-46
2022/12/14 07:34:23;;;;;;;;;;;16.20;34.40;;;;;;8331644;28;19932;-44
2022/12/14 07:38:23;;;;;;;;;;;16.20;34.50;;;;;;8332505;28;19917;-45
2022/12/14 07:42:24;;;;;;;;;;;16.20;34.40;;;;;;8331791;28;19959;-44
2022/12/14 07:46:26;;;;;;;;;;;16.30;34.50;;;;;;8331256;28;19940;-44
2022/12/14 07:50:27;;;;;;;;;;;16.20;34.50;;;;;;8331646;28;19928;-44
2022/12/14 07:54:27;;;;;;;;;;;16.20;34.40;;;;;;8331809;28;19924;-44
2022/12/14 07:58:28;;;;;;;;;;;16.30;34.60;;;;;;8330882;28;20329;-45
2022/12/14 08:02:29;;;;;;;;;;;16.20;34.50;;;;;;8331623;28;20385;-45
2022/12/14 08:06:30;;;;;;;;;;;16.20;34.60;;;;;;8331215;28;19917;-44
2022/12/14 08:10:31;;;;;;;;;;;16.20;34.60;;;;;;8323390;28;19917;-44
2022/12/14 08:14:31;;;;;;;;;;;16.20;34.60;;;;;;8331076;28;20454;-45
2022/12/14 08:18:32;;;;;;;;;;;16.30;34.60;;;;;;8331218;28;19913;-44
2022/12/14 08:22:32;;;;;;;;;;;16.30;34.50;;;;;;8330782;28;19960;-45
2022/12/14 08:26:33;;;;;;;;;;;16.30;34.50;;;;;;8330635;28;20423;-44
2022/12/14 08:30:37;;;;;;;;;;;16.30;34.50;;;;;;8330332;28;20322;-44
2022/12/14 08:34:38;;;;;;;;;;;16.30;34.50;;;;;;8329851;28;19925;-45
2022/12/14 08:38:39;;;;;;;;;;;16.30;34.50;;;;;;8330526;28;20309;-44
2022/12/14 08:42:39;;;;;;;;;;;16.30;34.50;;;;;;8330313;28;19924;-43
2022/12/14 08:46:41;;;;;;;;;;;16.30;34.50;;;;;;8329670;28;19936;-44
2022/12/14 08:50:41;;;;;;;;;;;16.30;34.50;;;;;;8330315;28;19925;-44
2022/12/14 08:54:42;;;;;;;;;;;16.30;34.50;;;;;;8330014;28;19925;-45
2022/12/14 08:58:42;;;;;;;;;;;16.30;34.50;;;;;;8329770;28;19913;-44
2022/12/14 09:02:43;;;;;;;;;;;16.40;34.50;;;;;;8330161;28;19917;-44
2022/12/14 09:06:43;;;;;;;;;;;16.30;34.60;;;;;;8329840;28;19925;-45
2022/12/14 09:10:49;;;;;;;;;;;16.30;34.60;;;;;;8335711;28;20340;-45
2022/12/14 09:14:49;;;;;;;;;;;16.30;34.60;;;;;;8336843;28;20397;-45
2022/12/14 09:18:50;;;;;;;;;;;16.40;34.50;;;;;;8336834;28;19952;-44
2022/12/14 09:22:51;;;;;;;;;;;16.40;34.60;;;;;;8335912;28;19927;-45
2022/12/14 09:26:52;;;;;;;;;;;16.30;34.50;;;;;;8336141;28;19921;-45
2022/12/14 09:30:57;;;;;;;;;;;16.40;34.60;;;;;;8335583;28;19917;-43
2022/12/14 09:34:58;;;;;;;;;;;16.40;34.60;;;;;;8335764;28;19917;-44
2022/12/14 09:38:58;;;;;;;;;;;16.40;34.60;;;;;;8336194;28;19913;-44
2022/12/14 09:43:02;;;;;;;;;;;16.40;34.50;;;;;;8335291;28;19923;-44
2022/12/14 09:47:15;;;;;;;;;;;16.40;34.60;;;;;;8335529;28;19918;-44
2022/12/14 09:51:17;;;;;;;;;;;16.40;34.70;;;;;;8335624;28;19932;-44
2022/12/14 09:55:18;;;;;;;;;;;16.40;34.60;;;;;;8334406;28;20007;-45
2022/12/14 09:59:19;;;;;;;;;;;16.40;34.60;;;;;;8335611;28;19913;-45
2022/12/14 10:03:32;;;;;;;;;;;16.40;34.60;;;;;;8335137;28;19917;-45
2022/12/14 10:07:38;;;;;;;;;;;16.40;34.70;;;;;;8334645;28;19924;-46
2022/12/14 10:11:38;;;;;;;;;;;16.40;34.70;;;;;;8334877;28;19925;-46
2022/12/14 10:15:45;;;;;;;;;;;16.40;34.70;;;;;;8334545;28;19917;-45
2022/12/14 10:19:53;;;;;;;;;;;16.40;34.70;;;;;;8333435;28;19920;-44
2022/12/14 10:23:56;;;;;;;;;;;16.50;34.70;;;;;;8334667;28;19936;-44
2022/12/14 10:28:01;;;;;;;;;;;16.50;34.70;;;;;;8333642;28;20011;-43
2022/12/14 10:32:07;;;;;;;;;;;16.50;34.70;;;;;;8334593;28;20456;-44
2022/12/14 10:36:11;;;;;;;;;;;16.50;34.70;;;;;;8333908;28;20259;-44
2022/12/14 10:40:20;;;;;;;;;;;16.50;34.70;;;;;;8333444;28;20326;-45
2022/12/14 10:44:29;;;;;;;;;;;16.50;34.70;;;;;;8334454;28;19940;-45
2022/12/14 10:48:49;;;;;;;;;;;16.50;34.70;;;;;;8333689;28;20370;-45
2022/12/14 10:52:53;;;;;;;;;;;16.50;34.70;;;;;;8332772;28;19965;-45
2022/12/14 10:56:53;;;;;;;;;;;16.50;34.70;;;;;;8333528;28;20286;-45
2022/12/14 11:00:54;;;;;;;;;;;16.50;34.70;;;;;;8332808;28;19917;-44
2022/12/14 11:04:55;;;;;;;;;;;16.50;34.80;;;;;;8333601;28;19920;-45
2022/12/14 11:08:56;;;;;;;;;;;16.50;34.80;;;;;;8333146;28;19917;-46
2022/12/14 11:13:06;;;;;;;;;;;16.50;34.80;;;;;;8331098;28;19928;-44
2022/12/14 11:17:26;;;;;;;;;;;16.60;34.70;;;;;;8332972;28;19917;-45
2022/12/14 11:21:28;;;;;;;;;;;16.50;34.70;;;;;;8332388;28;19913;-45
2022/12/14 11:25:37;;;;;;;;;;;16.50;34.70;;;;;;8331835;28;19921;-45
2022/12/14 11:29:38;;;;;;;;;;;16.60;34.80;;;;;;8332355;28;19913;-45
2022/12/14 11:33:39;;;;;;;;;;;16.60;34.70;;;;;;8330921;28;19929;-45
2022/12/14 11:37:40;;;;;;;;;;;16.60;34.80;;;;;;8331489;28;20039;-45
2022/12/14 11:41:42;;;;;;;;;;;16.60;34.80;;;;;;8331790;28;19913;-45
2022/12/14 11:45:49;;;;;;;;;;;16.60;34.80;;;;;;8331828;28;19921;-45
2022/12/14 11:49:53;;;;;;;;;;;16.60;34.80;;;;;;8331576;28;19952;-46
2022/12/14 11:54:00;;;;;;;;;;;16.60;34.90;;;;;;8331296;28;19925;-45
2022/12/14 11:58:01;;;;;;;;;;;16.60;34.90;;;;;;8331121;28;19913;-44
2022/12/14 12:02:21;;;;;;;;;;;16.60;34.90;;;;;;8331319;28;20333;-46
2022/12/14 12:06:23;;;;;;;;;;;16.60;35.00;;;;;;8331348;28;19917;-45
2022/12/14 12:10:25;;;;;;;;;;;16.60;35.00;;;;;;8330834;28;19924;-44
2022/12/14 12:14:32;;;;;;;;;;;16.60;34.90;;;;;;8331158;28;19925;-46
2022/12/14 12:18:48;;;;;;;;;;;16.60;34.90;;;;;;8330908;28;20465;-44
2022/12/14 12:22:50;;;;;;;;;;;16.60;34.90;;;;;;8330109;28;19971;-46
2022/12/14 12:26:53;;;;;;;;;;;16.60;34.90;;;;;;8330419;28;19932;-45
2022/12/14 12:30:56;;;;;;;;;;;16.60;34.90;;;;;;8329936;28;19925;-45
2022/12/14 12:35:06;;;;;;;;;;;16.60;34.90;;;;;;8330930;28;20369;-45
2022/12/14 12:39:24;;;;;;;;;;;16.60;34.90;;;;;;8330698;28;20004;-48
2022/12/14 12:43:33;;;;;;;;;;;16.60;34.90;;;;;;8329479;28;19924;-45
2022/12/14 12:47:43;;;;;;;;;;;16.60;35.00;;;;;;8330429;28;19943;-44
2022/12/14 12:51:45;;;;;;;;;;;16.60;35.00;;;;;;8329949;28;20021;-44
2022/12/14 12:55:49;;;;;;;;;;;16.50;35.00;;;;;;8328736;28;22325;-44
2022/12/14 12:59:52;;;;;;;;;;;16.50;35.10;;;;;;8330188;28;20449;-47
2022/12/14 13:03:56;;;;;;;;;;;16.50;35.10;;;;;;8329549;28;19946;-43
2022/12/14 13:08:05;;;;;;;;;;;16.50;35.20;;;;;;8330372;28;20008;-44
2022/12/14 13:12:09;;;;;;;;;;;16.50;35.20;;;;;;8330129;28;19922;-44
2022/12/14 13:16:21;;;;;;;;;;;16.50;35.20;;;;;;8329307;28;19917;-46
2022/12/14 13:20:24;;;;;;;;;;;16.50;35.20;;;;;;8329907;28;20004;-45
2022/12/14 13:24:25;;;;;;;;;;;16.40;35.30;;;;;;8329634;28;19948;-45
2022/12/14 13:28:40;;;;;;;;;;;16.40;35.30;;;;;;8329047;28;19924;-44
2022/12/14 13:32:41;;;;;;;;;;;16.40;35.30;;;;;;8329534;28;19948;-44
2022/12/14 13:36:46;;;;;;;;;;;16.50;35.30;;;;;;8329367;28;19923;-44
2022/12/14 13:41:05;;;;;;;;;;;16.50;35.30;;;;;;8329174;28;19913;-47
2022/12/14 13:45:15;;;;;;;;;;;16.50;35.40;;;;;;8329729;28;20011;-47
2022/12/14 13:49:19;;;;;;;;;;;16.50;35.40;;;;;;8328999;28;20414;-46
2022/12/14 13:53:45;;;;;;;;;;;16.50;35.30;;;;;;8329113;28;19925;-45
2022/12/14 13:57:46;;;;;;;;;;;16.50;35.40;;;;;;8333540;28;19936;-46
2022/12/14 14:01:46;;;;;;;;;;;16.50;35.40;;;;;;8334532;28;19917;-45
2022/12/14 14:05:46;;;;;;;;;;;16.50;35.40;;;;;;8335172;28;19913;-45
2022/12/14 14:09:57;;;;;;;;;;;16.50;35.30;;;;;;8333700;28;19917;-46
2022/12/14 14:13:57;;;;;;;;;;;16.50;35.40;;;;;;8334403;28;19932;-47
2022/12/14 14:18:06;;;;;;;;;;;16.50;35.40;;;;;;8334478;28;19917;-44
2022/12/14 14:22:22;;;;;;;;;;;16.50;35.40;;;;;;8334017;28;20020;-44
2022/12/14 14:26:24;;;;;;;;;;;16.60;35.40;;;;;;8333964;28;19920;-44
2022/12/14 14:30:27;;;;;;;;;;;16.50;35.40;;;;;;8334484;28;19913;-45
2022/12/14 14:34:31;;;;;;;;;;;16.50;35.40;;;;;;8333436;28;19971;-45
2022/12/14 14:38:31;;;;;;;;;;;16.50;35.40;;;;;;8333890;28;19949;-46
2022/12/14 14:42:35;;;;;;;;;;;16.60;36.00;;;;;;8332328;28;20306;-45
2022/12/14 14:46:40;;;;;;;;;;;16.50;35.50;;;;;;8333249;28;19913;-46
2022/12/14 14:50:42;;;;;;;;;;;16.50;35.40;;;;;;8333904;28;19921;-45
2022/12/14 14:54:42;;;;;;;;;;;16.50;35.50;;;;;;8333533;28;19929;-46
2022/12/14 14:58:43;;;;;;;;;;;16.50;35.50;;;;;;8332826;28;19917;-46
2022/12/14 15:02:44;;;;;;;;;;;16.50;35.50;;;;;;8333357;28;20282;-46
2022/12/14 15:06:47;;;;;;;;;;;16.50;35.50;;;;;;8332899;28;19913;-46
2022/12/14 15:10:49;;;;;;;;;;;16.50;35.50;;;;;;8332943;28;19928;-44
2022/12/14 15:14:52;;;;;;;;;;;16.50;35.60;;;;;;8332788;28;20337;-44
2022/12/14 15:18:52;;;;;;;;;;;16.60;35.50;;;;;;8332432;28;19917;-44
2022/12/14 15:22:54;;;;;;;;;;;16.60;35.50;;;;;;8332543;28;19916;-45
2022/12/14 15:26:55;;;;;;;;;;;16.50;35.50;;;;;;8332687;28;20381;-46
2022/12/14 15:30:56;;;;;;;;;;;16.60;35.60;;;;;;8332209;28;20004;-46
2022/12/14 15:35:05;;;;;;;;;;;16.60;35.60;;;;;;8332217;28;19929;-48
2022/12/14 15:39:05;;;;;;;;;;;16.50;35.50;;;;;;8332063;28;19944;-45
2022/12/14 15:43:16;;;;;;;;;;;16.60;35.70;;;;;;8331467;28;19924;-47
2022/12/14 15:47:21;;;;;;;;;;;16.60;35.60;;;;;;8332000;28;19963;-47
2022/12/14 15:51:24;;;;;;;;;;;16.60;35.70;;;;;;8332166;28;20363;-45
2022/12/14 15:55:32;;;;;;;;;;;16.60;35.70;;;;;;8331073;28;19917;-44
2022/12/14 15:59:34;;;;;;;;;;;16.50;35.70;;;;;;8331332;28;19924;-43
2022/12/14 16:03:36;;;;;;;;;;;16.60;35.70;;;;;;8331351;28;19952;-43
2022/12/14 16:07:37;;;;;;;;;;;16.60;35.70;;;;;;8330742;28;20404;-42
2022/12/14 16:11:42;;;;;;;;;;;16.60;35.70;;;;;;8331377;28;19968;-45
2022/12/14 16:15:45;;;;;;;;;;;16.60;35.70;;;;;;8330821;28;19924;-44
2022/12/14 16:19:53;;;;;;;;;;;16.60;35.70;;;;;;8329778;28;19917;-46
2022/12/14 16:23:53;;;;;;;;;;;16.60;35.70;;;;;;8331099;28;20339;-46
2022/12/14 16:27:54;;;;;;;;;;;16.60;35.70;;;;;;8330448;28;19943;-46
2022/12/14 16:32:05;;;;;;;;;;;16.60;35.70;;;;;;8330970;28;19928;-46
2022/12/14 16:36:09;;;;;;;;;;;16.60;35.70;;;;;;8330724;28;20293;-45
2022/12/14 16:40:24;;;;;;;;;;;16.60;35.70;;;;;;8329970;28;20290;-45
2022/12/14 16:44:28;;;;;;;;;;;16.60;35.70;;;;;;8330391;28;20331;-46
2022/12/14 16:48:29;;;;;;;;;;;16.60;35.80;;;;;;8330299;28;20255;-45
2022/12/14 16:52:33;;;;;;;;;;;16.60;36.30;;;;;;8329780;28;19953;-45
2022/12/14 16:56:41;;;;;;;;;;;16.60;35.80;;;;;;8330265;28;19921;-42
2022/12/14 17:00:54;;;;;;;;;;;16.60;35.70;;;;;;8316298;28;19922;-45
2022/12/14 17:04:56;;;;;;;;;;;16.60;35.80;;;;;;8307789;28;20259;-45
2022/12/14 17:08:56;;;;;;;;;;;16.60;35.80;;;;;;8309734;28;19925;-44
2022/12/14 17:12:57;;;;;;;;;;;16.60;35.80;;;;;;8318953;28;19932;-44
2022/12/14 17:17:00;;;;;;;;;;;16.60;35.70;;;;;;8323755;28;19917;-43
2022/12/14 17:21:00;;;;;;;;;;;16.60;35.80;;;;;;8322995;28;19921;-44
2022/12/14 17:25:01;;;;;;;;;;;16.60;35.70;;;;;;8325398;28;19917;-46
2022/12/14 17:29:01;;;;;;;;;;;16.60;35.80;;;;;;8314792;28;19928;-46
2022/12/14 17:33:02;;;;;;;;;;;16.60;35.90;;;;;;8316556;28;19983;-44
2022/12/14 17:37:09;;;;;;;;;;;16.60;35.80;;;;;;8319088;28;19917;-46
2022/12/14 17:41:13;;;;;;;;;;;16.60;35.80;;;;;;8332753;28;20370;-46
2022/12/14 17:45:17;;;;;;;;;;;16.60;35.90;;;;;;8333517;28;19917;-44
2022/12/14 17:49:32;;;;;;;;;;;16.60;35.90;;;;;;8325392;28;19970;-43
2022/12/14 17:53:33;;;;;;;;;;;16.60;35.90;;;;;;8327125;28;19925;-44
2022/12/14 17:57:34;;;;;;;;;;;16.60;35.80;;;;;;8304210;28;20407;-44
2022/12/14 18:01:35;;;;;;;;;;;16.60;35.80;;;;;;8332215;28;20366;-45
2022/12/14 18:05:35;;;;;;;;;;;16.60;35.80;;;;;;8321291;28;19928;-44
2022/12/14 18:09:36;;;;;;;;;;;16.60;35.90;;;;;;8330182;28;19921;-45
2022/12/14 18:13:36;;;;;;;;;;;16.60;35.90;;;;;;8317586;28;19925;-45
2022/12/14 18:17:37;;;;;;;;;;;16.60;35.90;;;;;;8315831;28;19918;-44
2022/12/14 18:21:37;;;;;;;;;;;16.60;35.90;;;;;;8331014;28;19916;-44
2022/12/14 18:25:42;;;;;;;;;;;16.60;36.00;;;;;;8311317;28;19976;-44
2022/12/14 18:29:42;;;;;;;;;;;16.60;35.90;;;;;;8310663;28;19921;-44
2022/12/14 18:33:44;;;;;;;;;;;16.60;36.00;;;;;;8327498;28;19925;-44
2022/12/14 18:37:48;;;;;;;;;;;16.60;36.10;;;;;;8314265;28;20260;-45
2022/12/14 18:41:48;;;;;;;;;;;16.60;36.00;;;;;;8320579;28;19921;-45
2022/12/14 18:45:49;;;;;;;;;;;16.60;36.00;;;;;;8323730;28;20012;-46
2022/12/14 18:49:50;;;;;;;;;;;16.60;36.00;;;;;;8313361;28;19917;-43
2022/12/14 18:53:51;;;;;;;;;;;16.60;36.00;;;;;;8333579;28;20342;-44
2022/12/14 18:57:53;;;;;;;;;;;16.60;35.90;;;;;;8333586;28;19913;-44
2022/12/14 19:01:54;;;;;;;;;;;16.60;36.00;;;;;;8333355;28;20007;-44
2022/12/14 19:06:02;;;;;;;;;;;16.60;36.00;;;;;;8333098;28;19924;-43
2022/12/14 19:10:03;;;;;;;;;;;16.60;36.00;;;;;;8332626;28;20011;-44
2022/12/14 19:14:03;;;;;;;;;;;16.60;36.00;;;;;;8333011;28;20004;-43
2022/12/14 19:18:04;;;;;;;;;;;16.70;36.10;;;;;;8333134;28;19920;-44
2022/12/14 19:22:05;;;;;;;;;;;16.60;36.10;;;;;;8332215;28;20430;-44
2022/12/14 19:26:06;;;;;;;;;;;16.60;36.00;;;;;;8332462;28;19917;-44
2022/12/14 19:30:08;;;;;;;;;;;16.60;36.00;;;;;;8332515;28;20007;-44
2022/12/14 19:34:09;;;;;;;;;;;16.70;36.10;;;;;;8332136;28;19925;-44
2022/12/14 19:38:11;;;;;;;;;;;16.70;36.10;;;;;;8332434;28;19935;-44
2022/12/14 19:42:12;;;;;;;;;;;16.70;36.10;;;;;;8331974;28;19925;-44
2022/12/14 19:46:13;;;;;;;;;;;16.70;36.10;;;;;;8331522;28;19959;-43
2022/12/14 19:50:14;;;;;;;;;;;16.70;36.10;;;;;;8331925;28;19917;-44
2022/12/14 19:54:14;;;;;;;;;;;16.70;36.00;;;;;;8330880;28;19971;-45
2022/12/14 19:58:15;;;;;;;;;;;16.70;36.10;;;;;;8331331;28;20291;-44
2022/12/14 20:02:16;;;;;;;;;;;16.60;36.10;;;;;;8331343;28;20330;-44
2022/12/14 20:06:16;;;;;;;;;;;16.60;36.20;;;;;;8331292;28;19916;-44
2022/12/14 20:10:16;;;;;;;;;;;16.60;36.10;;;;;;8329502;28;20373;-46
2022/12/14 20:14:17;;;;;;;;;;;16.60;36.20;;;;;;8331425;28;20335;-46
2022/12/14 20:18:18;;;;;;;;;;;16.60;36.20;;;;;;8331294;28;19923;-44
2022/12/14 20:22:18;;;;;;;;;;;16.50;36.20;;;;;;8330555;28;19964;-43
2022/12/14 20:26:19;;;;;;;;;;;16.60;36.30;;;;;;8330611;28;19917;-44
2022/12/14 20:30:20;;;;;;;;;;;16.60;36.30;;;;;;8330808;28;19917;-44
2022/12/14 20:34:20;;;;;;;;;;;16.60;36.30;;;;;;8329889;28;19926;-44
2022/12/14 20:38:21;;;;;;;;;;;16.60;36.30;;;;;;8330990;28;19917;-45
2022/12/14 20:42:22;;;;;;;;;;;16.60;36.30;;;;;;8330208;28;19922;-43
2022/12/14 20:46:32;;;;;;;;;;;16.60;36.30;;;;;;8329802;28;20396;-44
2022/12/14 20:50:33;;;;;;;;;;;16.50;36.30;;;;;;8330318;28;19921;-44
2022/12/14 20:54:34;;;;;;;;;;;16.60;36.30;;;;;;8330408;28;19925;-44
2022/12/14 20:58:34;;;;;;;;;;;16.60;36.30;;;;;;8329877;28;19925;-44
2022/12/14 21:02:35;;;;;;;;;;;16.60;36.30;;;;;;8330183;28;19940;-44
2022/12/14 21:06:39;;;;;;;;;;;16.60;36.30;;;;;;8329843;28;20432;-45
2022/12/14 21:10:40;;;;;;;;;;;16.60;36.30;;;;;;8329523;28;20404;-44
2022/12/14 21:14:41;;;;;;;;;;;16.60;36.30;;;;;;8329791;28;19925;-44
2022/12/14 21:18:42;;;;;;;;;;;16.60;36.30;;;;;;8330062;28;19913;-45
2022/12/14 21:22:42;;;;;;;;;;;16.60;36.30;;;;;;8329294;28;19975;-45
2022/12/14 21:26:43;;;;;;;;;;;16.60;36.30;;;;;;8329603;28;19986;-44
2022/12/14 21:30:43;;;;;;;;;;;16.60;36.20;;;;;;8329609;28;20294;-44
2022/12/14 21:34:44;;;;;;;;;;;16.60;36.30;;;;;;8329001;28;20301;-44
2022/12/14 21:38:45;;;;;;;;;;;16.60;36.30;;;;;;8329691;28;20323;-45
2022/12/14 21:42:48;;;;;;;;;;;16.60;36.80;;;;;;8329543;28;19917;-45
2022/12/14 21:46:48;;;;;;;;;;;16.60;36.30;;;;;;8328926;28;20006;-46
2022/12/14 21:50:48;;;;;;;;;;;16.60;36.30;;;;;;8329693;28;19921;-46
2022/12/14 21:54:49;;;;;;;;;;;16.60;36.40;;;;;;8329355;28;19925;-46
2022/12/14 21:58:49;;;;;;;;;;;16.60;36.50;;;;;;8328965;28;20024;-45
2022/12/14 22:02:50;;;;;;;;;;;16.60;36.50;;;;;;8329346;28;19917;-45
2022/12/14 22:06:51;;;;;;;;;;;16.60;36.60;;;;;;8329075;28;20000;-45
2022/12/14 22:10:51;;;;;;;;;;;16.60;36.70;;;;;;8328569;28;19917;-46
2022/12/14 22:14:52;;;;;;;;;;;16.60;36.70;;;;;;8328857;28;19935;-45
2022/12/14 22:18:52;;;;;;;;;;;16.60;36.70;;;;;;8335035;28;19924;-45
2022/12/14 22:22:53;;;;;;;;;;;16.50;36.70;;;;;;8334495;28;20373;-45
2022/12/14 22:26:53;;;;;;;;;;;16.50;36.80;;;;;;8334640;28;19924;-46
2022/12/14 22:30:54;;;;;;;;;;;16.50;36.70;;;;;;8333956;28;20378;-47
2022/12/14 22:34:54;;;;;;;;;;;16.50;36.70;;;;;;8334038;28;19933;-44
2022/12/14 22:38:56;;;;;;;;;;;16.60;36.80;;;;;;8334308;28;20428;-44
2022/12/14 22:42:57;;;;;;;;;;;16.60;36.70;;;;;;8333793;28;19921;-46
2022/12/14 22:46:57;;;;;;;;;;;16.60;36.70;;;;;;8333908;28;20484;-45
2022/12/14 22:51:01;;;;;;;;;;;16.60;36.80;;;;;;8333942;28;19929;-45
2022/12/14 22:55:02;;;;;;;;;;;16.60;36.80;;;;;;8333228;28;19978;-47
2022/12/14 22:59:05;;;;;;;;;;;16.60;36.90;;;;;;8333998;28;20311;-46
2022/12/14 23:03:06;;;;;;;;;;;16.60;36.90;;;;;;8332493;28;20336;-46
2022/12/14 23:07:06;;;;;;;;;;;16.60;36.80;;;;;;8332841;28;19921;-46
